LIPY/AOI METAR and TAF weather

Enter ICAO airport designator
Station Type Date Time Source
LIPY METAR 2021/05/12 04:50 UTC NOAA

LIPY 120450Z AUTO 20009KT 170V230 9999 NCD 16/09 Q1008


Station Type Date Time Source
LIPY Decoded METAR 2021/05/12 04:50 UTC NOAA

Falconara, Italy (LIPY) 43-37N 013-22E 10M
May 12, 2021 - 12:50 AM EDT / 2021.05.12 0450 UTC
Wind: from the SSW (200 degrees) at 10 MPH (9 KT) (direction variable):0
Visibility: greater than 7 mile(s):0
Temperature: 60 F (16 C)
Dew Point: 48 F (9 C)
Relative Humidity: 63%
Pressure (altimeter): 29.77 in. Hg (1008 hPa)
ob: LIPY 120450Z AUTO 20009KT 170V230 9999 NCD 16/09 Q1008
cycle: 5

Station Type Date Time Source
LIPY TAF 2021/05/11 18:21 UTC NOAA

TAF LIPY 111700Z 1118/1218 VRB06KT 9999 FEW050
TEMPO 1118/1122 4000 TSRA BKN010
BECMG 1200/1202 25014KT

Example: see airport list